Time;durP1;ratioP1;P1;durP2;ratioP2;P2;SDS_P1;SDS_P2;PMS_P1;PMS_P2;Temp;Humidity;BMP_temperature;BMP_pressure;BME280_temperature;BME280_humidity;BME280_pressure;Samples;Min_cycle;Max_cycle;Signal;HPM_P1;HPM_P2
2023/12/15 00:01:31;;;;;;;25.92;11.23;;;7.50;99.90;;;;;;4955045;28;91495;-74
2023/12/15 00:03:57;;;;;;;24.30;11.00;;;7.40;99.90;;;;;;4969374;28;88565;-74
2023/12/15 00:06:22;;;;;;;30.60;11.38;;;7.40;99.90;;;;;;4952820;28;87821;-74
2023/12/15 00:08:48;;;;;;;24.60;11.52;;;7.40;99.90;;;;;;4952594;28;90860;-73
2023/12/15 00:11:13;;;;;;;26.88;11.90;;;7.50;99.90;;;;;;4952660;28;92910;-74
2023/12/15 00:13:39;;;;;;;25.08;11.13;;;7.50;99.90;;;;;;4968111;28;89861;-74
2023/12/15 00:16:05;;;;;;;26.42;11.35;;;7.60;99.90;;;;;;4968967;28;87784;-73
2023/12/15 00:18:31;;;;;;;26.30;10.80;;;7.70;99.90;;;;;;4951432;28;90350;-73
2023/12/15 00:20:56;;;;;;;22.02;10.05;;;7.80;99.90;;;;;;4953053;28;91635;-74
2023/12/15 00:23:22;;;;;;;26.40;10.82;;;7.80;99.90;;;;;;4950401;28;90804;-73
2023/12/15 00:25:48;;;;;;;20.05;9.90;;;7.80;99.90;;;;;;4949824;28;89187;-73
2023/12/15 00:28:13;;;;;;;22.98;11.23;;;7.80;99.90;;;;;;4952834;28;90457;-74
2023/12/15 00:30:39;;;;;;;26.13;11.00;;;7.80;99.90;;;;;;4953122;28;91642;-75
2023/12/15 00:33:05;;;;;;;24.50;10.30;;;7.80;99.90;;;;;;4954045;28;91189;-75
2023/12/15 00:35:30;;;;;;;29.65;10.82;;;7.90;99.90;;;;;;4952722;28;88775;-74
2023/12/15 00:37:56;;;;;;;24.08;10.57;;;7.90;99.90;;;;;;4952031;28;90507;-74
2023/12/15 00:40:23;;;;;;;27.08;12.10;;;7.90;99.90;;;;;;4952825;28;90871;-73
2023/12/15 00:42:49;;;;;;;22.13;10.90;;;7.90;99.90;;;;;;4952649;28;91320;-73
2023/12/15 00:45:14;;;;;;;22.40;10.63;;;7.90;99.90;;;;;;4953044;28;87574;-74
2023/12/15 00:47:40;;;;;;;18.52;10.30;;;7.90;99.90;;;;;;4952409;28;90419;-74
2023/12/15 00:50:07;;;;;;;29.90;11.82;;;7.90;99.90;;;;;;4969463;28;88245;-74
2023/12/15 00:52:33;;;;;;;25.25;11.07;;;7.90;99.90;;;;;;4969290;28;90595;-74
2023/12/15 00:54:58;;;;;;;24.05;12.02;;;8.00;99.90;;;;;;4952557;28;87940;-73
2023/12/15 00:57:24;;;;;;;26.13;12.23;;;8.00;99.90;;;;;;4952949;28;90642;-74
2023/12/15 00:59:50;;;;;;;22.33;12.13;;;8.00;99.90;;;;;;4949902;28;91382;-74
2023/12/15 01:02:15;;;;;;;21.65;12.15;;;8.00;99.90;;;;;;4968713;28;89268;-73
2023/12/15 01:04:41;;;;;;;23.10;12.30;;;8.00;99.90;;;;;;4951329;28;88256;-74
2023/12/15 01:07:07;;;;;;;27.30;12.13;;;8.10;99.90;;;;;;4968856;28;88215;-73
2023/12/15 01:09:33;;;;;;;20.52;11.07;;;8.10;99.90;;;;;;4951823;28;90813;-74
2023/12/15 01:11:59;;;;;;;26.08;12.00;;;8.20;99.90;;;;;;4952059;28;91240;-73
2023/12/15 01:14:24;;;;;;;22.92;11.43;;;8.20;99.90;;;;;;4969775;28;87618;-73
2023/12/15 01:16:50;;;;;;;21.40;11.60;;;8.10;99.90;;;;;;4969797;28;87089;-73
2023/12/15 01:19:17;;;;;;;21.88;11.68;;;8.20;99.90;;;;;;4969288;28;88551;-75
2023/12/15 01:21:44;;;;;;;25.50;11.13;;;8.20;99.90;;;;;;4951676;28;91484;-75
2023/12/15 01:24:11;;;;;;;22.85;11.02;;;8.20;99.90;;;;;;4951201;28;89125;-74
2023/12/15 01:26:37;;;;;;;21.15;11.07;;;8.20;99.90;;;;;;4950343;28;90261;-73
2023/12/15 01:29:02;;;;;;;21.73;10.85;;;8.30;99.90;;;;;;4951643;28;92503;-74
2023/12/15 01:31:28;;;;;;;25.08;11.82;;;8.30;99.90;;;;;;4951612;28;91297;-73
2023/12/15 01:33:54;;;;;;;21.70;11.25;;;8.30;99.90;;;;;;4951558;28;87782;-73
2023/12/15 01:36:19;;;;;;;22.17;11.07;;;8.30;99.90;;;;;;4970536;28;88109;-73
2023/12/15 01:38:45;;;;;;;23.42;11.05;;;8.30;99.90;;;;;;4951777;28;91339;-73
2023/12/15 01:41:11;;;;;;;22.60;11.18;;;8.30;99.90;;;;;;4969928;28;87836;-74
2023/12/15 01:43:37;;;;;;;24.10;11.15;;;8.30;99.90;;;;;;4952325;28;87964;-74
2023/12/15 01:46:02;;;;;;;25.35;10.73;;;8.30;99.90;;;;;;4952856;28;90359;-73
2023/12/15 01:48:30;;;;;;;24.67;11.50;;;8.40;99.90;;;;;;4969006;28;89744;-73
2023/12/15 01:50:56;;;;;;;36.05;11.63;;;8.40;99.90;;;;;;4952978;28;92483;-74
2023/12/15 01:53:22;;;;;;;26.23;11.00;;;8.40;99.90;;;;;;4951623;28;88220;-73
2023/12/15 01:55:48;;;;;;;25.77;11.60;;;8.50;99.90;;;;;;4958871;28;90421;-74
2023/12/15 01:58:14;;;;;;;30.60;11.15;;;8.40;99.90;;;;;;4968787;28;88086;-74
2023/12/15 02:00:39;;;;;;;23.30;11.93;;;8.40;99.90;;;;;;4968748;28;88385;-75
2023/12/15 02:03:05;;;;;;;26.25;12.55;;;8.40;99.90;;;;;;4952105;28;87302;-74
2023/12/15 02:05:31;;;;;;;25.88;11.68;;;8.40;99.90;;;;;;4969063;28;87055;-73
2023/12/15 02:07:58;;;;;;;25.70;13.32;;;8.40;99.90;;;;;;4950087;28;91625;-74
2023/12/15 02:10:23;;;;;;;28.83;12.27;;;8.40;99.90;;;;;;4951441;28;91318;-73
2023/12/15 02:12:49;;;;;;;28.00;11.80;;;8.40;99.90;;;;;;4967744;28;88576;-74
2023/12/15 02:15:15;;;;;;;21.65;12.32;;;8.50;99.90;;;;;;4968754;28;87678;-74
2023/12/15 02:17:41;;;;;;;27.75;12.82;;;8.50;99.90;;;;;;4951011;28;91452;-73
2023/12/15 02:20:07;;;;;;;28.40;12.65;;;8.50;99.90;;;;;;4951749;28;91759;-73
2023/12/15 02:22:33;;;;;;;23.10;12.23;;;8.50;99.90;;;;;;4969081;28;87583;-74
2023/12/15 02:24:59;;;;;;;21.05;11.48;;;8.60;99.90;;;;;;4968923;28;87594;-74
2023/12/15 02:27:24;;;;;;;27.33;13.52;;;8.60;99.90;;;;;;4969315;28;88170;-75
2023/12/15 02:29:50;;;;;;;24.63;12.85;;;8.60;99.90;;;;;;4951201;28;90496;-74
2023/12/15 02:32:16;;;;;;;24.95;12.35;;;8.60;99.90;;;;;;4950627;28;87753;-74
2023/12/15 02:34:41;;;;;;;28.73;12.48;;;8.60;99.90;;;;;;4950681;28;90712;-74
2023/12/15 02:37:07;;;;;;;26.48;12.55;;;8.50;99.90;;;;;;4948531;28;92610;-74
2023/12/15 02:39:33;;;;;;;28.83;13.18;;;8.60;99.90;;;;;;4950443;28;93411;-74
2023/12/15 02:41:58;;;;;;;29.13;14.38;;;8.60;99.90;;;;;;4951209;28;87958;-74
2023/12/15 02:44:24;;;;;;;23.63;12.20;;;8.60;99.90;;;;;;4968145;28;87505;-74
2023/12/15 02:46:50;;;;;;;27.17;13.20;;;8.50;99.90;;;;;;4968216;28;88076;-74
2023/12/15 02:49:18;;;;;;;32.90;13.23;;;8.50;99.90;;;;;;4950816;28;91178;-74
2023/12/15 02:51:44;;;;;;;34.95;13.82;;;8.50;99.90;;;;;;4950914;28;87785;-74
2023/12/15 02:54:09;;;;;;;26.73;13.65;;;8.50;99.90;;;;;;4968167;28;87163;-75
2023/12/15 02:56:35;;;;;;;29.88;13.65;;;8.50;99.90;;;;;;4949116;28;91693;-74
2023/12/15 02:59:01;;;;;;;23.67;12.93;;;8.50;99.90;;;;;;4950624;28;91151;-74
2023/12/15 03:01:27;;;;;;;31.52;14.65;;;8.50;99.90;;;;;;4950081;28;88515;-74
2023/12/15 03:03:52;;;;;;;29.58;14.10;;;8.50;99.90;;;;;;4967791;28;87509;-75
2023/12/15 03:06:18;;;;;;;28.98;14.02;;;8.50;99.90;;;;;;4950254;28;91514;-74
2023/12/15 03:08:44;;;;;;;29.00;13.15;;;8.60;99.90;;;;;;4966609;28;88446;-74
2023/12/15 03:11:10;;;;;;;27.75;13.65;;;8.50;99.90;;;;;;4950582;28;87678;-74
2023/12/15 03:13:38;;;;;;;28.30;14.57;;;8.50;99.90;;;;;;4949822;28;91446;-74
2023/12/15 03:16:09;;;;;;;29.77;13.98;;;8.50;99.90;;;;;;4949395;28;91154;-74
2023/12/15 03:18:35;;;;;;;25.83;13.73;;;8.60;99.90;;;;;;4951017;28;91406;-74
2023/12/15 03:21:01;;;;;;;32.17;14.07;;;8.70;99.90;;;;;;4951831;28;88051;-74
2023/12/15 03:23:26;;;;;;;32.85;13.27;;;8.70;99.90;;;;;;4949636;28;91023;-74
2023/12/15 03:25:52;;;;;;;31.52;14.15;;;8.70;99.90;;;;;;4948289;28;92599;-74
2023/12/15 03:28:18;;;;;;;30.58;14.25;;;8.70;99.90;;;;;;4950281;28;92493;-73
2023/12/15 03:30:44;;;;;;;28.40;13.68;;;8.60;99.90;;;;;;4967321;28;87778;-75
2023/12/15 03:33:09;;;;;;;29.75;13.88;;;8.50;99.90;;;;;;4949704;28;90359;-76
2023/12/15 03:35:35;;;;;;;29.20;14.02;;;8.50;99.90;;;;;;4949078;28;91423;-74
2023/12/15 03:38:03;;;;;;;27.85;14.38;;;8.50;99.90;;;;;;4949778;28;91985;-73
2023/12/15 03:40:29;;;;;;;29.98;13.93;;;8.50;99.90;;;;;;4950583;28;87819;-73
2023/12/15 03:42:54;;;;;;;27.35;14.00;;;8.50;99.90;;;;;;4950338;28;90995;-74
2023/12/15 03:45:20;;;;;;;28.48;13.85;;;8.50;99.90;;;;;;4950931;28;91303;-75
2023/12/15 03:47:46;;;;;;;30.58;14.20;;;8.40;99.90;;;;;;4950046;28;91800;-74
2023/12/15 03:50:11;;;;;;;34.50;14.80;;;8.40;99.90;;;;;;4953677;28;88390;-74
2023/12/15 03:52:37;;;;;;;33.20;14.85;;;8.40;99.90;;;;;;4953651;28;89968;-74
2023/12/15 03:55:03;;;;;;;30.20;14.63;;;8.40;99.90;;;;;;4953392;28;92632;-74
2023/12/15 03:57:29;;;;;;;31.70;15.55;;;8.30;99.90;;;;;;4952862;28;92187;-74
2023/12/15 03:59:54;;;;;;;35.70;14.73;;;8.30;99.90;;;;;;4953433;28;87418;-74
2023/12/15 04:02:20;;;;;;;34.58;15.38;;;8.30;99.90;;;;;;4952441;28;90545;-73
2023/12/15 04:04:46;;;;;;;32.13;15.20;;;8.30;99.90;;;;;;4953027;28;91860;-73
2023/12/15 04:07:11;;;;;;;34.35;15.48;;;8.40;99.90;;;;;;4970623;28;87983;-74
2023/12/15 04:09:37;;;;;;;36.10;16.63;;;8.40;99.90;;;;;;4950918;28;88015;-74
2023/12/15 04:12:04;;;;;;;38.85;14.25;;;8.40;99.90;;;;;;4970519;28;87345;-73
2023/12/15 04:14:32;;;;;;;37.67;15.52;;;8.30;99.90;;;;;;4952936;28;91482;-74
2023/12/15 04:16:57;;;;;;;38.50;16.25;;;8.30;99.90;;;;;;4953267;28;91405;-74
2023/12/15 04:19:23;;;;;;;42.20;16.63;;;8.40;99.90;;;;;;4969735;28;87906;-75
2023/12/15 04:21:49;;;;;;;39.45;16.25;;;8.40;99.90;;;;;;4968898;28;87609;-74
2023/12/15 04:24:14;;;;;;;34.67;14.35;;;8.40;99.90;;;;;;4970758;28;88048;-74
2023/12/15 04:26:40;;;;;;;37.00;15.57;;;8.40;99.90;;;;;;4951694;28;91384;-75
2023/12/15 04:29:06;;;;;;;41.08;16.30;;;8.40;99.90;;;;;;4953478;28;88209;-74
2023/12/15 04:31:31;;;;;;;36.22;17.20;;;8.40;99.90;;;;;;4970394;28;86705;-74
2023/12/15 04:33:57;;;;;;;32.15;16.10;;;8.40;99.90;;;;;;4952673;28;91473;-74
2023/12/15 04:36:23;;;;;;;39.53;16.77;;;8.40;99.90;;;;;;4954825;28;91560;-73
2023/12/15 04:38:48;;;;;;;39.25;15.73;;;8.40;99.90;;;;;;4970042;28;89014;-75
2023/12/15 04:41:18;;;;;;;37.20;16.38;;;8.40;99.90;;;;;;4951468;28;89864;-75
2023/12/15 04:43:45;;;;;;;40.67;17.33;;;8.40;99.90;;;;;;4957720;28;90160;-74
2023/12/15 04:46:11;;;;;;;41.10;16.73;;;8.50;99.90;;;;;;4968761;28;89154;-74
2023/12/15 04:48:37;;;;;;;34.15;15.52;;;8.40;99.90;;;;;;4952741;28;87222;-74
2023/12/15 04:51:03;;;;;;;37.50;17.20;;;8.40;99.90;;;;;;4953783;28;89786;-73
2023/12/15 04:53:28;;;;;;;39.40;16.65;;;8.50;99.90;;;;;;4970590;28;88251;-75
2023/12/15 04:55:54;;;;;;;36.72;17.08;;;8.50;99.90;;;;;;4970513;28;87373;-75
2023/12/15 04:58:20;;;;;;;37.10;16.60;;;8.50;99.90;;;;;;4952862;28;88272;-73
2023/12/15 05:00:45;;;;;;;36.08;16.48;;;8.50;99.90;;;;;;4969332;28;87919;-74
2023/12/15 05:03:11;;;;;;;32.42;16.50;;;8.50;99.90;;;;;;4952563;28;92558;-73
2023/12/15 05:05:37;;;;;;;38.15;16.77;;;8.60;99.90;;;;;;4951488;28;92294;-75
2023/12/15 05:08:02;;;;;;;40.40;17.67;;;8.60;99.90;;;;;;4969322;28;87895;-73
2023/12/15 05:10:28;;;;;;;40.45;18.13;;;8.60;99.90;;;;;;4952235;28;92115;-74
2023/12/15 05:12:54;;;;;;;33.67;16.73;;;8.60;99.90;;;;;;4951513;28;91555;-74
2023/12/15 05:15:19;;;;;;;37.28;15.50;;;8.60;99.90;;;;;;4953116;28;92588;-74
2023/12/15 05:17:45;;;;;;;37.28;16.35;;;8.70;99.90;;;;;;4951822;28;87447;-74
2023/12/15 05:20:11;;;;;;;35.53;16.08;;;8.70;99.90;;;;;;4952383;28;90158;-74
2023/12/15 05:22:37;;;;;;;32.35;15.85;;;8.60;99.90;;;;;;4951813;28;91840;-75
2023/12/15 05:25:02;;;;;;;31.02;15.75;;;8.60;99.90;;;;;;4952528;28;90986;-75
2023/12/15 05:27:28;;;;;;;33.72;15.63;;;8.70;99.90;;;;;;4951068;28;88583;-74
2023/12/15 05:29:54;;;;;;;41.65;16.35;;;8.80;99.90;;;;;;4953013;28;89245;-75
2023/12/15 05:32:19;;;;;;;39.20;16.08;;;8.80;99.90;;;;;;4952230;28;91946;-75
2023/12/15 05:34:45;;;;;;;32.88;16.02;;;8.90;99.90;;;;;;4970134;28;87821;-75
2023/12/15 05:37:12;;;;;;;31.73;15.38;;;8.90;99.90;;;;;;4970261;28;87495;-74
2023/12/15 05:39:42;;;;;;;31.83;15.18;;;8.90;99.90;;;;;;4951887;28;90839;-74
2023/12/15 05:42:07;;;;;;;36.55;16.23;;;8.90;99.90;;;;;;4973978;28;87777;-75
2023/12/15 05:44:33;;;;;;;36.17;16.52;;;8.90;99.90;;;;;;4957406;28;90119;-74
2023/12/15 05:46:59;;;;;;;34.92;15.63;;;9.00;99.90;;;;;;4956259;28;87518;-76
2023/12/15 05:49:24;;;;;;;31.08;15.98;;;9.00;99.90;;;;;;4955885;28;89459;-75
2023/12/15 05:51:50;;;;;;;34.38;17.15;;;9.10;99.90;;;;;;4970397;28;89945;-74
2023/12/15 05:54:16;;;;;;;29.20;15.52;;;9.10;99.90;;;;;;4955427;28;92292;-76
2023/12/15 05:56:41;;;;;;;31.20;15.75;;;9.20;99.90;;;;;;4954659;28;87814;-76
2023/12/15 05:59:08;;;;;;;35.38;16.17;;;9.20;99.90;;;;;;4953566;28;90475;-75
2023/12/15 06:01:34;;;;;;;33.00;16.27;;;9.10;99.90;;;;;;4970545;28;88649;-76
2023/12/15 06:03:59;;;;;;;34.13;16.42;;;9.00;99.90;;;;;;4970925;28;88311;-74
2023/12/15 06:06:25;;;;;;;38.83;17.02;;;9.00;99.90;;;;;;4953347;28;87824;-75
2023/12/15 06:08:51;;;;;;;35.88;15.90;;;8.90;99.90;;;;;;4951942;28;90248;-75
2023/12/15 06:11:17;;;;;;;35.10;17.48;;;9.00;99.90;;;;;;4950972;28;91471;-75
2023/12/15 06:13:43;;;;;;;38.97;17.75;;;9.00;99.90;;;;;;4952367;28;91191;-74
2023/12/15 06:16:20;;;;;;;39.88;18.20;;;8.90;99.90;;;;;;4969428;28;88442;-74
2023/12/15 06:18:49;;;;;;;37.20;17.42;;;8.90;99.90;;;;;;4956633;28;90854;-76
2023/12/15 06:21:26;;;;;;;38.90;18.77;;;8.90;99.90;;;;;;4951916;28;92058;-75
2023/12/15 06:23:52;;;;;;;46.80;17.70;;;8.90;99.90;;;;;;4951430;28;91110;-74
2023/12/15 06:26:19;;;;;;;44.38;19.05;;;8.90;99.90;;;;;;4951615;28;87623;-75
2023/12/15 06:28:45;;;;;;;44.83;18.45;;;9.00;99.90;;;;;;4968486;28;87676;-74
2023/12/15 06:31:13;;;;;;;42.22;18.63;;;9.00;99.90;;;;;;4951489;28;89784;-75
2023/12/15 06:33:39;;;;;;;38.00;18.02;;;9.00;99.90;;;;;;4968242;28;87289;-76
2023/12/15 06:36:05;;;;;;;45.83;17.83;;;8.90;99.90;;;;;;4969542;28;87018;-74
2023/12/15 06:38:31;;;;;;;42.08;16.77;;;8.70;99.90;;;;;;4967985;28;87513;-74
2023/12/15 06:40:57;;;;;;;41.50;18.52;;;8.70;99.90;;;;;;4967748;28;90109;-74
2023/12/15 06:43:23;;;;;;;42.25;17.25;;;8.60;99.90;;;;;;4951328;28;92162;-74
2023/12/15 06:45:49;;;;;;;47.15;19.20;;;8.60;99.90;;;;;;4968658;28;87132;-75
2023/12/15 06:48:14;;;;;;;44.30;19.17;;;8.60;99.90;;;;;;4951729;28;90220;-75
2023/12/15 06:50:40;;;;;;;43.47;17.75;;;8.60;99.90;;;;;;4967207;28;87973;-75
2023/12/15 06:53:05;;;;;;;47.97;17.77;;;8.60;99.90;;;;;;4949680;28;90571;-75
2023/12/15 06:55:31;;;;;;;49.53;19.52;;;8.70;99.90;;;;;;4949180;28;87625;-75
2023/12/15 06:57:57;;;;;;;47.72;18.88;;;8.70;99.90;;;;;;4950038;28;90981;-74
2023/12/15 07:00:23;;;;;;;49.63;18.92;;;8.70;99.90;;;;;;4951049;28;91345;-74
2023/12/15 07:02:48;;;;;;;49.92;20.05;;;8.60;99.90;;;;;;4949217;28;90989;-74
2023/12/15 07:05:14;;;;;;;43.95;19.42;;;8.60;99.90;;;;;;4965152;28;88760;-74
2023/12/15 07:07:40;;;;;;;50.35;19.58;;;8.40;99.90;;;;;;4947377;28;89185;-74
2023/12/15 07:10:06;;;;;;;57.38;19.33;;;8.30;99.90;;;;;;4966042;28;88145;-74
2023/12/15 07:12:32;;;;;;;46.80;20.30;;;8.20;99.90;;;;;;4948807;28;91504;-75
2023/12/15 07:14:57;;;;;;;54.72;19.83;;;8.10;99.90;;;;;;4968789;28;87470;-75
2023/12/15 07:17:23;;;;;;;56.85;21.42;;;8.10;99.90;;;;;;4950502;28;90196;-76
2023/12/15 07:19:48;;;;;;;55.08;20.17;;;8.00;99.90;;;;;;4950211;28;91679;-75
2023/12/15 07:22:14;;;;;;;53.78;20.88;;;8.00;99.90;;;;;;4950921;28;91043;-75
2023/12/15 07:24:41;;;;;;;56.05;21.40;;;8.00;99.90;;;;;;4954351;28;87457;-75
2023/12/15 07:27:07;;;;;;;58.78;21.70;;;8.00;99.90;;;;;;4954297;28;89421;-75
2023/12/15 07:29:33;;;;;;;54.45;21.65;;;8.00;99.90;;;;;;4952924;28;92698;-75
2023/12/15 07:31:58;;;;;;;57.28;21.98;;;8.00;99.90;;;;;;4953326;28;92765;-75
2023/12/15 07:34:24;;;;;;;58.00;22.85;;;8.00;99.90;;;;;;4970735;28;87467;-75
2023/12/15 07:36:50;;;;;;;62.55;21.95;;;8.00;99.90;;;;;;4970850;28;87590;-75
2023/12/15 07:39:21;;;;;;;67.15;23.25;;;7.90;99.90;;;;;;4972252;28;87837;-76
2023/12/15 07:41:48;;;;;;;64.15;23.88;;;7.90;99.90;;;;;;4953186;28;90043;-74
2023/12/15 07:44:14;;;;;;;62.15;23.50;;;8.00;99.90;;;;;;4953476;28;87698;-75
2023/12/15 07:46:40;;;;;;;63.22;22.45;;;8.00;99.90;;;;;;4951787;28;90829;-75
2023/12/15 07:49:06;;;;;;;64.88;22.70;;;7.90;99.90;;;;;;4952040;28;89813;-74
2023/12/15 07:51:32;;;;;;;67.50;23.33;;;7.90;99.90;;;;;;4951329;28;91601;-75
2023/12/15 07:53:57;;;;;;;76.68;24.33;;;7.90;99.90;;;;;;4954007;28;88493;-74
2023/12/15 07:56:25;;;;;;;70.25;21.63;;;7.90;99.90;;;;;;4952776;28;90742;-75
2023/12/15 07:58:52;;;;;;;62.55;23.35;;;7.90;99.90;;;;;;4953429;28;90810;-74
2023/12/15 08:01:19;;;;;;;72.43;24.80;;;7.90;99.90;;;;;;4954140;28;89938;-74
2023/12/15 08:03:45;;;;;;;68.72;23.45;;;7.90;99.90;;;;;;4953614;28;87490;-74
2023/12/15 08:06:15;;;;;;;69.35;23.02;;;7.90;99.90;;;;;;4954087;28;88908;-73
2023/12/15 08:08:42;;;;;;;69.15;22.13;;;7.90;99.90;;;;;;4953108;28;92057;-76
2023/12/15 08:11:09;;;;;;;67.82;22.60;;;8.00;99.90;;;;;;4971195;28;88396;-75
2023/12/15 08:13:36;;;;;;;72.00;23.48;;;8.00;99.90;;;;;;4971028;28;87456;-74
2023/12/15 08:16:03;;;;;;;73.65;24.02;;;8.00;99.90;;;;;;4952282;28;89857;-73
2023/12/15 08:18:29;;;;;;;69.65;22.65;;;8.00;99.90;;;;;;4953165;28;92647;-75
2023/12/15 08:20:55;;;;;;;71.28;24.25;;;8.00;99.90;;;;;;4956698;28;92627;-75
2023/12/15 08:23:20;;;;;;;70.88;23.15;;;8.10;99.90;;;;;;4942825;28;88131;-77
2023/12/15 08:25:46;;;;;;;65.30;23.58;;;8.10;99.90;;;;;;4942893;28;88451;-73
2023/12/15 08:28:22;;;;;;;69.75;23.45;;;8.10;99.90;;;;;;4940670;28;91005;-77
2023/12/15 08:30:51;;;;;;;74.90;24.52;;;8.10;99.90;;;;;;4944540;28;90404;-75
2023/12/15 08:33:17;;;;;;;65.57;22.98;;;8.10;99.90;;;;;;4945786;28;87726;-77
2023/12/15 08:35:43;;;;;;;63.40;22.67;;;8.20;99.90;;;;;;4963562;28;86838;-76
2023/12/15 08:38:09;;;;;;;64.53;22.65;;;8.20;99.90;;;;;;4944358;28;92185;-75
2023/12/15 08:40:35;;;;;;;67.32;22.63;;;8.20;99.90;;;;;;4964257;28;88463;-75
2023/12/15 08:43:00;;;;;;;67.95;22.48;;;8.20;99.90;;;;;;4951793;28;88507;-73
2023/12/15 08:45:27;;;;;;;62.65;22.35;;;8.30;99.90;;;;;;4951971;28;89957;-74
2023/12/15 08:47:52;;;;;;;70.45;22.08;;;8.30;99.90;;;;;;4947348;28;91988;-75
2023/12/15 08:50:18;;;;;;;59.28;22.30;;;8.30;99.90;;;;;;4951850;28;91522;-73
2023/12/15 08:52:44;;;;;;;64.28;21.58;;;8.30;99.90;;;;;;4945905;28;87655;-74
2023/12/15 08:55:10;;;;;;;68.57;22.63;;;8.30;99.90;;;;;;4961756;28;87690;-74
2023/12/15 08:57:36;;;;;;;60.90;21.90;;;8.30;99.90;;;;;;4960040;28;89476;-76
2023/12/15 09:00:04;;;;;;;73.60;23.67;;;8.30;99.90;;;;;;4966494;28;87675;-74
2023/12/15 09:02:30;;;;;;;63.95;22.20;;;8.40;99.90;;;;;;4952651;28;87166;-74
2023/12/15 09:04:56;;;;;;;61.78;23.13;;;8.40;99.90;;;;;;4969935;28;88029;-74
2023/12/15 09:07:21;;;;;;;56.47;21.95;;;8.40;99.90;;;;;;4952095;28;91939;-74
2023/12/15 09:09:47;;;;;;;61.63;21.88;;;8.50;99.90;;;;;;4953119;28;92690;-74
2023/12/15 09:12:13;;;;;;;59.97;21.98;;;8.50;99.90;;;;;;4953677;28;87540;-74
2023/12/15 09:14:39;;;;;;;56.85;22.25;;;8.50;99.90;;;;;;4951947;28;90129;-74
2023/12/15 09:17:05;;;;;;;57.03;20.88;;;8.60;99.90;;;;;;4952560;28;91912;-75
2023/12/15 09:19:31;;;;;;;58.80;22.02;;;8.60;99.90;;;;;;4952316;28;91361;-75
2023/12/15 09:21:57;;;;;;;56.40;20.33;;;8.70;99.90;;;;;;4951635;28;88011;-74
2023/12/15 09:24:23;;;;;;;54.47;21.77;;;8.70;99.90;;;;;;4971601;28;87052;-75
2023/12/15 09:26:49;;;;;;;61.38;22.20;;;8.70;99.90;;;;;;4970447;28;87932;-75
2023/12/15 09:29:15;;;;;;;69.30;23.05;;;8.70;99.90;;;;;;4952032;28;89901;-75
2023/12/15 09:31:41;;;;;;;54.80;21.40;;;8.70;99.90;;;;;;4968158;28;89241;-74
2023/12/15 09:34:07;;;;;;;63.83;20.67;;;8.70;99.90;;;;;;4950841;28;90254;-74
2023/12/15 09:36:34;;;;;;;59.47;21.75;;;8.80;99.90;;;;;;4952863;28;91192;-74
2023/12/15 09:39:00;;;;;;;60.17;21.20;;;8.90;99.90;;;;;;4953041;28;90460;-77
2023/12/15 09:41:27;;;;;;;80.70;23.50;;;8.80;99.90;;;;;;4952879;28;88160;-76
2023/12/15 09:43:53;;;;;;;60.05;21.60;;;8.90;99.90;;;;;;4969746;28;87538;-76
2023/12/15 09:46:21;;;;;;;58.20;21.52;;;8.90;99.90;;;;;;4951844;28;90880;-75
2023/12/15 09:48:47;;;;;;;48.45;19.90;;;9.00;99.90;;;;;;4952765;28;90502;-75
2023/12/15 09:51:22;;;;;;;49.58;19.75;;;9.00;99.90;;;;;;4954184;28;87523;-75
2023/12/15 09:53:49;;;;;;;50.42;19.95;;;9.10;99.90;;;;;;4969656;28;87797;-73
2023/12/15 09:56:15;;;;;;;44.60;20.42;;;9.10;99.90;;;;;;4952498;28;91645;-76
2023/12/15 09:58:41;;;;;;;44.80;18.95;;;9.10;99.90;;;;;;4952712;28;91033;-74
2023/12/15 10:01:07;;;;;;;54.33;20.73;;;9.10;99.90;;;;;;4961032;28;88209;-75
2023/12/15 10:03:33;;;;;;;47.38;20.02;;;9.10;99.90;;;;;;4951479;28;89896;-75
2023/12/15 10:05:58;;;;;;;50.83;19.08;;;9.20;99.90;;;;;;4950324;28;91317;-76
2023/12/15 10:08:24;;;;;;;57.60;20.50;;;9.20;99.90;;;;;;4966753;28;89051;-75
2023/12/15 10:10:50;;;;;;;52.67;21.33;;;9.20;99.90;;;;;;4956912;28;87765;-74
2023/12/15 10:13:16;;;;;;;45.97;19.98;;;9.20;99.90;;;;;;4950968;28;90322;-75
2023/12/15 10:15:43;;;;;;;59.15;22.02;;;9.20;99.90;;;;;;4951622;28;91360;-74
2023/12/15 10:18:08;;;;;;;50.78;19.75;;;9.30;99.90;;;;;;4952016;28;91712;-75
2023/12/15 10:20:35;;;;;;;45.42;19.10;;;9.30;99.90;;;;;;4968732;28;88247;-74
2023/12/15 10:23:05;;;;;;;51.58;19.65;;;9.30;99.90;;;;;;4969163;28;87486;-74
2023/12/15 10:25:34;;;;;;;47.72;19.10;;;9.30;99.90;;;;;;4951586;28;89862;-74
2023/12/15 10:28:02;;;;;;;48.13;19.83;;;9.30;99.90;;;;;;4952447;28;91214;-80
2023/12/15 10:30:28;;;;;;;52.65;19.20;;;9.30;99.90;;;;;;4969194;28;87818;-75
2023/12/15 10:32:58;;;;;;;40.83;19.42;;;9.30;99.90;;;;;;4969711;28;87695;-74
2023/12/15 10:35:24;;;;;;;48.67;19.13;;;9.40;99.90;;;;;;4950916;28;88199;-77
2023/12/15 10:37:50;;;;;;;44.85;19.30;;;9.40;99.90;;;;;;4966925;28;87710;-74
2023/12/15 10:40:17;;;;;;;45.30;17.63;;;9.50;99.90;;;;;;4951191;28;87997;-73
2023/12/15 10:42:44;;;;;;;40.22;18.98;;;9.50;99.90;;;;;;4951680;28;90735;-76
2023/12/15 10:45:10;;;;;;;44.03;19.30;;;9.50;99.90;;;;;;4948405;28;92348;-73
2023/12/15 10:47:36;;;;;;;45.13;17.73;;;9.50;99.90;;;;;;4951502;28;91952;-73
2023/12/15 10:50:03;;;;;;;46.63;19.48;;;9.60;99.90;;;;;;4951110;28;88006;-72
2023/12/15 10:52:32;;;;;;;44.30;19.27;;;9.60;99.90;;;;;;4950374;28;91697;-74
2023/12/15 10:54:59;;;;;;;47.38;19.02;;;9.60;99.90;;;;;;4961301;28;91737;-72
2023/12/15 10:57:25;;;;;;;44.85;17.40;;;9.60;99.90;;;;;;4954674;28;91361;-73
2023/12/15 10:59:51;;;;;;;39.90;18.38;;;9.60;99.90;;;;;;4958987;28;87716;-73
2023/12/15 11:02:23;;;;;;;45.67;17.75;;;9.60;99.90;;;;;;4958632;28;90250;-73
2023/12/15 11:04:49;;;;;;;39.13;17.92;;;9.60;99.90;;;;;;4975362;28;87511;-74
2023/12/15 11:07:20;;;;;;;46.08;17.83;;;9.60;99.90;;;;;;4973852;28;88271;-73
2023/12/15 11:09:46;;;;;;;42.45;16.33;;;9.60;99.90;;;;;;4956950;28;88666;-73
2023/12/15 11:12:24;;;;;;;49.78;17.70;;;9.60;99.90;;;;;;4958471;28;90362;-74
2023/12/15 11:15:04;;;;;;;39.10;17.33;;;9.60;99.90;;;;;;4957725;28;91797;-73
2023/12/15 11:17:31;;;;;;;36.35;16.20;;;9.70;99.90;;;;;;4957167;28;90396;-72
2023/12/15 11:20:09;;;;;;;41.00;16.08;;;9.70;99.90;;;;;;4957567;28;87227;-73
2023/12/15 11:22:51;;;;;;;34.65;16.20;;;9.70;99.90;;;;;;4956990;28;91049;-72
2023/12/15 11:25:25;;;;;;;44.00;17.70;;;9.70;99.90;;;;;;4966988;28;91498;-73
2023/12/15 11:28:21;;;;;;;44.20;16.30;;;9.70;99.90;;;;;;4961540;28;91658;-72
2023/12/15 11:30:52;;;;;;;38.20;15.68;;;9.70;99.90;;;;;;4933448;28;87349;-74
2023/12/15 11:33:22;;;;;;;39.88;14.23;;;9.70;99.90;;;;;;4952085;28;90761;-74
2023/12/15 11:36:08;;;;;;;36.28;14.02;;;9.80;99.90;;;;;;4955581;28;90203;-74
2023/12/15 11:38:38;;;;;;;33.58;14.05;;;9.80;99.90;;;;;;4956814;28;92378;-73
2023/12/15 11:41:05;;;;;;;38.00;14.77;;;9.80;99.90;;;;;;4957047;28;87134;-74
2023/12/15 11:43:32;;;;;;;38.40;14.32;;;9.70;99.90;;;;;;4974835;28;87747;-73
2023/12/15 11:45:58;;;;;;;32.17;13.20;;;9.80;99.90;;;;;;4955650;28;91137;-73
2023/12/15 11:48:24;;;;;;;41.72;14.98;;;9.70;99.90;;;;;;4957632;28;90896;-73
2023/12/15 11:50:50;;;;;;;38.17;14.35;;;9.70;99.90;;;;;;4956360;28;87897;-73
2023/12/15 11:53:17;;;;;;;36.55;13.52;;;9.70;99.90;;;;;;4962719;28;90730;-74
2023/12/15 11:55:46;;;;;;;32.17;13.00;;;9.70;99.90;;;;;;4955618;28;91742;-73
2023/12/15 11:58:15;;;;;;;29.90;12.32;;;9.70;99.90;;;;;;4955116;28;90562;-73
2023/12/15 12:00:42;;;;;;;28.85;12.45;;;9.70;99.90;;;;;;4955908;28;88341;-76
2023/12/15 12:03:12;;;;;;;33.65;11.65;;;9.80;99.90;;;;;;4957924;28;90238;-72
2023/12/15 12:05:39;;;;;;;27.65;12.15;;;9.80;99.90;;;;;;4975033;28;88771;-73
2023/12/15 12:08:05;;;;;;;33.13;11.95;;;9.80;99.90;;;;;;4974742;28;88100;-73
2023/12/15 12:10:32;;;;;;;29.63;11.73;;;9.90;99.90;;;;;;4951552;28;88361;-74
2023/12/15 12:12:58;;;;;;;32.60;12.30;;;9.90;99.90;;;;;;4952475;28;89318;-73
2023/12/15 12:15:24;;;;;;;32.88;13.05;;;10.00;99.90;;;;;;4954086;28;91202;-73
2023/12/15 12:17:50;;;;;;;29.70;11.88;;;10.10;99.90;;;;;;4953769;28;91020;-75
2023/12/15 12:20:16;;;;;;;35.42;15.00;;;10.10;99.90;;;;;;4952977;28;87533;-76
2023/12/15 12:22:44;;;;;;;36.33;13.80;;;10.20;99.90;;;;;;4953874;28;90612;-73
2023/12/15 12:25:16;;;;;;;32.15;14.05;;;10.30;99.90;;;;;;4953945;28;92140;-73
2023/12/15 12:27:43;;;;;;;31.70;13.17;;;10.40;99.90;;;;;;4957152;28;90979;-73
2023/12/15 12:30:16;;;;;;;28.58;12.40;;;10.50;99.90;;;;;;4971541;28;87334;-73
2023/12/15 12:32:42;;;;;;;;;;;10.50;99.90;;;;;;4971417;28;87606;-73